Time;durP1;ratioP1;P1;durP2;ratioP2;P2;SDS_P1;SDS_P2;PMS_P1;PMS_P2;Temp;Humidity;BMP_temperature;BMP_pressure;BME280_temperature;BME280_humidity;BME280_pressure;Samples;Min_cycle;Max_cycle;Signal;HPM_P1;HPM_P2
2022/04/30 00:00:32;;;;;;;24.83;22.63;;;12.60;99.90;;;;;;6213665;23;20793;-73
2022/04/30 00:03:00;;;;;;;26.00;23.87;;;12.60;99.90;;;;;;6215524;23;20416;-72
2022/04/30 00:05:29;;;;;;;28.87;26.40;;;12.60;99.90;;;;;;6214146;23;20503;-72
2022/04/30 00:07:56;;;;;;;27.20;25.10;;;12.50;99.90;;;;;;6214875;23;20440;-73
2022/04/30 00:10:23;;;;;;;24.50;22.53;;;12.50;99.90;;;;;;6214470;23;20409;-73
2022/04/30 00:12:52;;;;;;;22.80;20.93;;;12.60;99.90;;;;;;6214271;23;20505;-73
2022/04/30 00:15:19;;;;;;;22.63;21.03;;;12.50;99.90;;;;;;6213733;23;20420;-72
2022/04/30 00:17:46;;;;;;;22.00;20.40;;;12.40;99.90;;;;;;6214005;23;20408;-73
2022/04/30 00:20:13;;;;;;;22.57;20.97;;;12.40;99.90;;;;;;6213781;23;20448;-74
2022/04/30 00:22:40;;;;;;;24.27;22.57;;;12.40;99.90;;;;;;6213977;23;20443;-73
2022/04/30 00:25:08;;;;;;;25.03;23.23;;;12.40;99.90;;;;;;6214078;23;20408;-73
2022/04/30 00:27:35;;;;;;;22.17;20.47;;;12.30;99.90;;;;;;6213786;23;20413;-72
2022/04/30 00:30:04;;;;;;;23.07;21.13;;;12.30;99.90;;;;;;6213872;23;20459;-72
2022/04/30 00:32:31;;;;;;;23.63;21.73;;;12.30;99.90;;;;;;6213819;23;20424;-72
2022/04/30 00:34:58;;;;;;;23.50;21.70;;;12.30;99.90;;;;;;6213353;23;20408;-72
2022/04/30 00:37:26;;;;;;;21.00;19.10;;;12.30;99.90;;;;;;6213901;23;20459;-72
2022/04/30 00:39:53;;;;;;;20.83;19.30;;;12.40;99.90;;;;;;6213760;23;20437;-72
2022/04/30 00:42:19;;;;;;;21.27;19.87;;;12.40;99.90;;;;;;6213797;23;20408;-71
2022/04/30 00:44:47;;;;;;;21.27;19.67;;;12.30;99.90;;;;;;6213483;23;20467;-72
2022/04/30 00:47:18;;;;;;;23.40;21.30;;;12.30;99.90;;;;;;6213441;23;20506;-72
2022/04/30 00:49:45;;;;;;;25.53;23.53;;;12.20;99.90;;;;;;6213656;23;20385;-72
2022/04/30 00:52:15;;;;;;;24.90;23.07;;;12.20;99.90;;;;;;6213678;23;20408;-73
2022/04/30 00:54:42;;;;;;;23.57;21.50;;;12.30;99.90;;;;;;6213442;23;20491;-73
2022/04/30 00:57:11;;;;;;;24.63;22.60;;;12.30;99.90;;;;;;6213321;23;20408;-73
2022/04/30 00:59:40;;;;;;;26.27;24.20;;;12.30;99.90;;;;;;6212573;23;20440;-72
2022/04/30 01:02:10;;;;;;;26.67;24.17;;;12.40;99.90;;;;;;6212317;23;20743;-72
2022/04/30 01:04:38;;;;;;;27.33;25.30;;;12.20;99.90;;;;;;6211968;23;20424;-73
2022/04/30 01:07:07;;;;;;;27.20;24.90;;;12.10;99.90;;;;;;6212111;23;20544;-73
2022/04/30 01:09:39;;;;;;;26.17;24.07;;;12.10;99.90;;;;;;6212157;23;20414;-72
2022/04/30 01:12:09;;;;;;;23.20;21.57;;;12.00;99.90;;;;;;6212144;23;20393;-72
2022/04/30 01:14:38;;;;;;;22.27;20.63;;;12.10;99.90;;;;;;6212474;23;20479;-73
2022/04/30 01:17:06;;;;;;;22.67;20.77;;;12.20;99.90;;;;;;6212052;23;20404;-73
2022/04/30 01:19:36;;;;;;;22.07;20.37;;;12.30;99.90;;;;;;6211424;23;20415;-72
2022/04/30 01:22:10;;;;;;;20.43;18.73;;;12.50;99.90;;;;;;6211987;23;20893;-72
2022/04/30 01:24:39;;;;;;;20.17;18.57;;;12.50;99.90;;;;;;6211884;23;20951;-73
2022/04/30 01:27:06;;;;;;;21.83;20.17;;;12.60;99.90;;;;;;6211334;23;20412;-71
2022/04/30 01:29:36;;;;;;;21.77;20.07;;;12.70;99.90;;;;;;6211947;23;20409;-72
2022/04/30 01:37:36;;;;;;;24.83;22.60;;;13.10;99.90;;;;;;6211723;23;20371;-74
2022/04/30 01:40:05;;;;;;;22.43;20.53;;;13.10;99.90;;;;;;6211345;23;20451;-72
2022/04/30 01:42:36;;;;;;;23.23;21.53;;;13.10;99.90;;;;;;6211781;23;20404;-73
2022/04/30 01:45:05;;;;;;;24.07;22.10;;;13.10;99.90;;;;;;6211570;23;20874;-73
2022/04/30 01:47:33;;;;;;;26.03;23.67;;;13.10;99.90;;;;;;6211970;23;20413;-72
2022/04/30 01:50:00;;;;;;;27.13;24.77;;;13.10;99.90;;;;;;6211471;23;20455;-72
2022/04/30 01:52:27;;;;;;;24.60;22.30;;;13.10;99.90;;;;;;6211890;23;20405;-73
2022/04/30 01:54:54;;;;;;;32.83;26.17;;;13.10;99.90;;;;;;6212015;23;20411;-72
2022/04/30 01:57:25;;;;;;;27.60;25.13;;;13.10;99.90;;;;;;6211639;23;20416;-72
2022/04/30 01:59:53;;;;;;;27.90;25.50;;;13.00;99.90;;;;;;6211268;23;20948;-72
2022/04/30 02:02:22;;;;;;;26.67;24.10;;;13.00;99.90;;;;;;6211523;23;20409;-72
2022/04/30 02:04:49;;;;;;;29.57;26.67;;;13.00;99.90;;;;;;6211367;23;20475;-72
2022/04/30 02:07:17;;;;;;;28.60;25.80;;;13.00;99.90;;;;;;6211487;23;20424;-72
2022/04/30 02:09:44;;;;;;;29.30;26.40;;;12.90;99.90;;;;;;6211471;23;20892;-72
2022/04/30 02:12:11;;;;;;;27.13;24.83;;;13.00;99.90;;;;;;6211627;23;20401;-72
2022/04/30 02:14:44;;;;;;;29.83;26.40;;;13.00;99.90;;;;;;6211714;23;20409;-73
2022/04/30 02:17:13;;;;;;;29.50;26.90;;;12.90;99.90;;;;;;6211379;23;20484;-73
2022/04/30 02:22:26;;;;;;;31.13;27.97;;;13.00;99.90;;;;;;6212581;23;20368;-72
2022/04/30 02:24:54;;;;;;;28.53;25.83;;;12.90;99.90;;;;;;6212722;23;20454;-72
2022/04/30 02:27:22;;;;;;;31.03;28.20;;;12.90;99.90;;;;;;6211929;23;20490;-72
2022/04/30 02:29:50;;;;;;;28.80;25.77;;;12.90;99.90;;;;;;6211415;23;20411;-72
2022/04/30 02:32:17;;;;;;;29.70;27.20;;;12.80;99.90;;;;;;6211536;23;20423;-72
2022/04/30 02:34:44;;;;;;;29.17;26.53;;;12.90;99.90;;;;;;6211159;23;20436;-73
2022/04/30 02:37:13;;;;;;;29.90;27.20;;;12.90;99.90;;;;;;6211315;23;20733;-75
2022/04/30 02:39:40;;;;;;;30.93;27.10;;;12.90;99.90;;;;;;6211304;23;20408;-72
2022/04/30 02:42:07;;;;;;;29.30;26.40;;;12.90;99.90;;;;;;6211227;23;20971;-72
2022/04/30 02:44:34;;;;;;;28.27;25.77;;;12.90;99.90;;;;;;6211181;23;20728;-73
2022/04/30 02:47:02;;;;;;;32.00;28.80;;;12.80;99.90;;;;;;6211338;23;20636;-73
2022/04/30 02:49:28;;;;;;;29.87;26.93;;;12.80;99.90;;;;;;6212491;23;20512;-73
2022/04/30 02:51:55;;;;;;;31.73;28.63;;;12.90;99.90;;;;;;6213635;23;20896;-73
2022/04/30 02:54:22;;;;;;;30.30;25.73;;;12.80;99.90;;;;;;6214481;23;20413;-72
2022/04/30 02:56:48;;;;;;;28.80;25.80;;;12.90;99.90;;;;;;6214682;23;20412;-73
2022/04/30 03:01:59;;;;;;;29.00;26.30;;;12.90;99.90;;;;;;6214221;23;20450;-73
2022/04/30 03:04:27;;;;;;;28.80;26.20;;;12.90;99.90;;;;;;6214026;23;20745;-72
2022/04/30 03:06:54;;;;;;;30.73;27.33;;;12.80;99.90;;;;;;6214579;23;20412;-72
2022/04/30 03:09:21;;;;;;;29.13;26.43;;;12.80;99.90;;;;;;6214373;23;20412;-72
2022/04/30 03:11:48;;;;;;;26.50;24.10;;;12.70;99.90;;;;;;6214234;23;20419;-73
2022/04/30 03:14:15;;;;;;;30.07;27.00;;;12.70;99.90;;;;;;6214518;23;20412;-72
2022/04/30 03:22:12;;;;;;;29.60;26.60;;;12.70;99.90;;;;;;6213906;23;20424;-72
2022/04/30 03:24:39;;;;;;;30.80;27.90;;;12.70;99.90;;;;;;6214412;23;20401;-72
2022/04/30 03:27:06;;;;;;;30.20;27.10;;;12.70;99.90;;;;;;6214114;23;20413;-72
2022/04/30 03:29:33;;;;;;;27.83;25.27;;;12.70;99.90;;;;;;6214190;23;20409;-73
2022/04/30 03:31:59;;;;;;;31.00;27.90;;;12.70;99.90;;;;;;6213489;23;20913;-72
2022/04/30 03:34:32;;;;;;;29.90;27.00;;;12.60;99.90;;;;;;6214051;23;20413;-73
2022/04/30 03:36:59;;;;;;;30.07;27.27;;;12.60;99.90;;;;;;6214139;23;20428;-72
2022/04/30 03:39:26;;;;;;;31.70;28.70;;;12.60;99.90;;;;;;6213983;23;20912;-72
2022/04/30 03:41:53;;;;;;;32.67;29.73;;;12.60;99.90;;;;;;6214027;23;20742;-72
2022/04/30 03:44:19;;;;;;;32.30;29.10;;;12.60;99.90;;;;;;6214117;23;20413;-73
2022/04/30 03:46:46;;;;;;;32.20;29.10;;;12.60;99.90;;;;;;6214073;23;20467;-72
2022/04/30 03:49:13;;;;;;;31.70;28.37;;;12.60;99.90;;;;;;6213763;23;20447;-72
2022/04/30 03:51:41;;;;;;;34.50;30.90;;;12.50;99.90;;;;;;6214070;23;20412;-72
2022/04/30 03:54:08;;;;;;;33.23;29.93;;;12.50;99.90;;;;;;6214110;23;20819;-72
2022/04/30 03:56:35;;;;;;;31.60;28.47;;;12.50;99.90;;;;;;6214004;23;20412;-72
2022/04/30 03:59:02;;;;;;;33.00;30.17;;;12.50;99.90;;;;;;6213468;23;20767;-72
2022/04/30 04:01:29;;;;;;;35.13;31.47;;;12.40;99.90;;;;;;6212466;23;20768;-73
2022/04/30 04:03:56;;;;;;;37.47;33.57;;;12.40;99.90;;;;;;6213674;23;20416;-72
2022/04/30 04:06:23;;;;;;;36.03;32.30;;;12.30;99.90;;;;;;6213945;23;20729;-72
2022/04/30 04:08:52;;;;;;;35.87;32.20;;;12.30;99.90;;;;;;6213550;23;20415;-72
2022/04/30 04:11:20;;;;;;;36.30;32.67;;;12.30;99.90;;;;;;6213682;23;20412;-72
2022/04/30 04:19:15;;;;;;;38.70;35.00;;;12.30;99.90;;;;;;6213291;23;20372;-73
2022/04/30 04:21:42;;;;;;;37.50;32.93;;;12.30;99.90;;;;;;6213459;23;20448;-74
2022/04/30 04:26:54;;;;;;;38.80;35.13;;;12.50;99.90;;;;;;6213544;23;20404;-71
2022/04/30 04:29:21;;;;;;;35.97;32.47;;;12.40;99.90;;;;;;6213761;23;20408;-71
2022/04/30 04:31:48;;;;;;;41.13;35.47;;;12.30;99.90;;;;;;6213584;23;20404;-71
2022/04/30 04:34:14;;;;;;;38.63;34.70;;;12.30;99.90;;;;;;6213395;23;20408;-72
2022/04/30 04:36:42;;;;;;;38.33;34.50;;;12.20;99.90;;;;;;6213294;23;20929;-73
2022/04/30 04:39:13;;;;;;;41.50;36.33;;;12.20;99.90;;;;;;6212927;23;20415;-72
2022/04/30 04:41:40;;;;;;;36.27;32.87;;;12.20;99.90;;;;;;6213659;23;20436;-72
2022/04/30 04:44:06;;;;;;;37.30;33.57;;;12.20;99.90;;;;;;6213420;23;20412;-74
2022/04/30 04:46:34;;;;;;;38.43;34.80;;;12.20;99.90;;;;;;6213578;23;20404;-73
2022/04/30 04:49:01;;;;;;;38.00;34.17;;;12.20;99.90;;;;;;6213229;23;20753;-72
2022/04/30 04:51:28;;;;;;;36.77;32.97;;;12.20;99.90;;;;;;6212786;23;20405;-71
2022/04/30 04:57:04;;;;;;;38.33;33.90;;;12.20;99.90;;;;;;6171538;23;20393;-71
2022/04/30 04:59:31;;;;;;;38.13;34.10;;;12.30;99.90;;;;;;6211216;23;20432;-71
2022/04/30 05:01:58;;;;;;;37.00;33.37;;;12.30;99.90;;;;;;6212397;23;20449;-71
2022/04/30 05:04:25;;;;;;;36.30;32.00;;;12.40;99.90;;;;;;6212808;23;20413;-71
2022/04/30 05:06:52;;;;;;;35.50;32.07;;;12.40;99.90;;;;;;6213027;23;20416;-72
2022/04/30 05:09:19;;;;;;;34.37;30.77;;;12.50;99.90;;;;;;6212828;23;20404;-72
2022/04/30 05:11:46;;;;;;;36.20;32.37;;;12.50;99.90;;;;;;6212495;23;20413;-73
2022/04/30 05:14:14;;;;;;;37.97;34.57;;;12.40;99.90;;;;;;6211856;23;20919;-73
2022/04/30 05:16:40;;;;;;;42.93;38.37;;;12.50;99.90;;;;;;6213115;23;20405;-73
2022/04/30 05:19:07;;;;;;;44.83;40.73;;;12.40;99.90;;;;;;6212616;23;20899;-71
2022/04/30 05:21:34;;;;;;;45.90;41.47;;;12.40;99.90;;;;;;6212670;23;20436;-73
2022/04/30 05:24:00;;;;;;;45.87;41.80;;;12.40;99.90;;;;;;6212523;23;20468;-74
2022/04/30 05:26:27;;;;;;;50.77;45.63;;;12.30;99.90;;;;;;6212572;23;20412;-72
2022/04/30 05:28:54;;;;;;;46.07;42.27;;;12.30;99.90;;;;;;6212604;23;20405;-72
2022/04/30 05:31:22;;;;;;;50.77;46.10;;;12.30;99.90;;;;;;6212590;23;20440;-71
2022/04/30 05:33:49;;;;;;;50.57;45.77;;;12.30;99.90;;;;;;6212408;23;20411;-72
2022/04/30 05:36:15;;;;;;;48.70;44.27;;;12.30;99.90;;;;;;6211256;23;20404;-72
2022/04/30 05:38:42;;;;;;;54.83;49.43;;;12.20;99.90;;;;;;6212095;23;20435;-73
2022/04/30 05:41:09;;;;;;;52.80;47.80;;;12.30;99.90;;;;;;6211882;23;20445;-73
2022/04/30 05:43:36;;;;;;;53.63;48.50;;;12.20;99.90;;;;;;6212740;23;20735;-73
2022/04/30 05:46:03;;;;;;;51.17;46.20;;;12.10;99.90;;;;;;6211312;23;20440;-75
2022/04/30 05:48:31;;;;;;;55.50;50.10;;;12.20;99.90;;;;;;6211711;23;20412;-74
2022/04/30 05:50:58;;;;;;;53.37;48.30;;;12.20;99.90;;;;;;6212127;23;20980;-74
2022/04/30 05:53:25;;;;;;;54.70;49.73;;;12.20;99.90;;;;;;6212058;23;20770;-75
2022/04/30 05:55:52;;;;;;;52.70;47.90;;;12.20;99.90;;;;;;6212256;23;20408;-76
2022/04/30 05:58:19;;;;;;;56.63;51.50;;;12.20;99.90;;;;;;6211864;23;20429;-75
2022/04/30 06:00:46;;;;;;;55.17;50.30;;;12.20;99.90;;;;;;6211449;23;20998;-75
2022/04/30 06:03:13;;;;;;;55.97;51.07;;;12.20;99.90;;;;;;6211980;23;20775;-75
2022/04/30 06:05:41;;;;;;;57.77;52.23;;;12.20;99.90;;;;;;6211439;23;20412;-75
2022/04/30 06:08:09;;;;;;;54.57;49.87;;;12.30;99.90;;;;;;6211709;23;20409;-75
2022/04/30 06:10:36;;;;;;;59.80;54.37;;;12.30;99.90;;;;;;6212092;23;20727;-76
2022/04/30 06:13:02;;;;;;;57.83;52.43;;;12.20;99.90;;;;;;6212273;23;20405;-74
2022/04/30 06:15:29;;;;;;;57.60;52.20;;;12.20;99.90;;;;;;6211445;23;20412;-75
2022/04/30 06:17:56;;;;;;;55.00;49.63;;;12.20;99.90;;;;;;6211363;23;20412;-75
2022/04/30 06:20:23;;;;;;;60.07;54.67;;;12.30;99.90;;;;;;6211246;23;20404;-74
2022/04/30 06:22:51;;;;;;;57.33;52.17;;;12.40;99.90;;;;;;6211544;23;20909;-75
2022/04/30 06:25:18;;;;;;;57.90;51.50;;;12.40;99.90;;;;;;6212146;23;20408;-74
2022/04/30 06:27:44;;;;;;;58.90;53.57;;;12.40;99.90;;;;;;6212921;23;20963;-75
2022/04/30 06:30:12;;;;;;;58.20;52.87;;;12.30;99.90;;;;;;6213456;23;20420;-75
2022/04/30 06:32:39;;;;;;;57.60;52.33;;;12.30;99.90;;;;;;6213847;23;20405;-75
2022/04/30 06:35:06;;;;;;;58.00;52.90;;;12.30;99.90;;;;;;6214054;23;20424;-75
2022/04/30 06:37:33;;;;;;;56.63;51.67;;;12.30;99.90;;;;;;6213204;23;20419;-75
2022/04/30 06:40:01;;;;;;;57.00;51.63;;;12.40;99.90;;;;;;6212752;23;20405;-73
2022/04/30 06:42:28;;;;;;;58.67;53.63;;;12.50;99.90;;;;;;6213144;23;20440;-73
2022/04/30 06:44:54;;;;;;;56.83;52.03;;;12.60;99.90;;;;;;6212723;23;20440;-74
2022/04/30 06:47:21;;;;;;;58.20;53.10;;;12.60;99.90;;;;;;6212890;23;20904;-73
2022/04/30 06:49:50;;;;;;;55.93;51.13;;;12.60;99.90;;;;;;6213095;23;20470;-74
2022/04/30 06:52:17;;;;;;;55.03;50.70;;;12.60;99.90;;;;;;6212443;23;20409;-73
2022/04/30 06:57:30;;;;;;;56.27;51.23;;;12.80;99.90;;;;;;6213497;23;20475;-74
2022/04/30 06:59:57;;;;;;;57.97;53.07;;;12.80;99.90;;;;;;6213907;23;20445;-75
2022/04/30 07:02:27;;;;;;;56.53;50.97;;;13.00;99.90;;;;;;6214257;23;20444;-73
2022/04/30 07:04:55;;;;;;;54.83;50.30;;;13.10;99.90;;;;;;6214393;23;20416;-73
2022/04/30 07:07:22;;;;;;;54.73;50.20;;;13.10;99.90;;;;;;6214450;23;20438;-74
2022/04/30 07:09:50;;;;;;;56.47;51.70;;;13.10;99.90;;;;;;6214155;23;20413;-74
2022/04/30 07:12:17;;;;;;;59.03;53.80;;;13.00;99.90;;;;;;6213602;23;20462;-73
2022/04/30 07:14:49;;;;;;;54.40;49.97;;;13.00;99.90;;;;;;6214087;23;20404;-73
2022/04/30 07:17:16;;;;;;;55.13;50.73;;;13.10;99.90;;;;;;6214097;23;20393;-73
2022/04/30 07:19:43;;;;;;;53.70;49.30;;;13.10;99.90;;;;;;6213712;23;20413;-73
2022/04/30 07:22:10;;;;;;;54.93;50.17;;;13.20;99.90;;;;;;6213684;23;20474;-74
2022/04/30 07:24:37;;;;;;;53.63;49.23;;;13.20;99.90;;;;;;6214191;23;20420;-73
2022/04/30 07:27:05;;;;;;;52.30;48.13;;;13.00;99.90;;;;;;6213731;23;20404;-73
2022/04/30 07:29:32;;;;;;;50.77;46.73;;;13.00;99.90;;;;;;6213828;23;20412;-74
2022/04/30 07:32:01;;;;;;;52.30;48.17;;;13.00;99.90;;;;;;6213688;23;20408;-74
2022/04/30 07:34:28;;;;;;;51.20;47.13;;;13.10;99.90;;;;;;6213515;23;20423;-73
2022/04/30 07:36:55;;;;;;;51.10;46.70;;;13.20;99.90;;;;;;6213020;23;20413;-73
2022/04/30 07:39:21;;;;;;;50.60;46.40;;;13.20;99.90;;;;;;6213693;23;20408;-72
2022/04/30 07:41:49;;;;;;;51.33;47.33;;;13.30;99.90;;;;;;6213659;23;20444;-73
2022/04/30 07:44:16;;;;;;;53.30;48.80;;;13.20;99.90;;;;;;6213617;23;20412;-75
2022/04/30 07:46:43;;;;;;;52.60;48.47;;;13.10;99.90;;;;;;6213452;23;20405;-74
2022/04/30 07:49:11;;;;;;;52.67;48.33;;;13.80;99.90;;;;;;6212959;23;20747;-74
2022/04/30 07:51:52;;;;;;;53.20;48.53;;;12.90;99.90;;;;;;6213518;23;20889;-72
2022/04/30 07:54:19;;;;;;;52.13;48.03;;;12.80;99.90;;;;;;6213712;23;20401;-74
2022/04/30 07:56:46;;;;;;;52.40;48.50;;;12.60;99.90;;;;;;6213307;23;20417;-75
2022/04/30 07:59:13;;;;;;;53.50;49.17;;;12.50;99.90;;;;;;6213212;23;20448;-71
2022/04/30 08:01:40;;;;;;;55.10;49.83;;;12.50;99.90;;;;;;6213517;23;20404;-73
2022/04/30 08:04:06;;;;;;;53.97;49.40;;;12.50;99.90;;;;;;6212511;23;20897;-71
2022/04/30 08:06:34;;;;;;;54.27;49.40;;;12.60;99.90;;;;;;6213326;23;20412;-72
2022/04/30 08:09:01;;;;;;;54.17;49.77;;;12.60;99.90;;;;;;6213208;23;20444;-73
2022/04/30 08:11:28;;;;;;;52.90;48.77;;;12.70;99.90;;;;;;6213519;23;20416;-72
2022/04/30 08:13:54;;;;;;;51.93;47.43;;;12.50;99.90;;;;;;6213700;23;20709;-72
2022/04/30 08:16:21;;;;;;;55.03;50.53;;;12.60;99.90;;;;;;6213867;23;20405;-73
2022/04/30 08:18:48;;;;;;;55.90;51.20;;;12.70;99.90;;;;;;6212857;23;20420;-72
2022/04/30 08:21:14;;;;;;;52.13;48.03;;;12.80;99.90;;;;;;6213209;23;20660;-73
2022/04/30 08:23:43;;;;;;;55.80;51.10;;;12.90;99.90;;;;;;6213075;23;20445;-73
2022/04/30 08:26:09;;;;;;;54.87;50.37;;;13.10;99.90;;;;;;6213277;23;20705;-73
2022/04/30 08:28:36;;;;;;;53.33;49.10;;;13.10;99.90;;;;;;6213478;23;20400;-73
2022/04/30 08:31:03;;;;;;;51.57;47.77;;;13.30;99.90;;;;;;6212601;23;20409;-73
2022/04/30 08:33:29;;;;;;;52.90;48.73;;;13.30;99.90;;;;;;6213100;23;20405;-73
2022/04/30 08:35:56;;;;;;;52.73;48.80;;;13.30;99.90;;;;;;6212951;23;20408;-72
2022/04/30 08:38:23;;;;;;;50.97;46.97;;;13.40;99.90;;;;;;6213286;23;20892;-74
2022/04/30 08:40:51;;;;;;;50.87;47.07;;;13.40;99.90;;;;;;6208791;23;20718;-75
2022/04/30 08:43:21;;;;;;;52.50;48.57;;;13.50;99.90;;;;;;6212258;23;20436;-75
2022/04/30 08:45:48;;;;;;;51.47;47.67;;;13.60;99.90;;;;;;6212516;23;20435;-75
2022/04/30 08:48:17;;;;;;;52.20;48.10;;;13.80;99.90;;;;;;6212856;23;20412;-74
2022/04/30 08:50:45;;;;;;;52.63;48.53;;;14.10;99.90;;;;;;6212607;23;21114;-75
2022/04/30 08:53:13;;;;;;;51.60;47.90;;;14.10;99.90;;;;;;6212199;23;20409;-75
2022/04/30 08:55:40;;;;;;;50.77;47.27;;;14.20;99.90;;;;;;6212844;23;20412;-74
2022/04/30 08:58:08;;;;;;;48.93;45.50;;;14.10;99.90;;;;;;6212648;23;20773;-72
2022/04/30 09:00:41;;;;;;;49.50;45.80;;;14.20;99.90;;;;;;6212425;23;20444;-72
2022/04/30 09:03:07;;;;;;;50.47;46.87;;;14.10;99.90;;;;;;6212832;23;20523;-72
2022/04/30 09:05:36;;;;;;;50.57;47.07;;;14.30;99.90;;;;;;6212505;23;20413;-72
2022/04/30 09:08:05;;;;;;;50.80;47.20;;;14.20;99.90;;;;;;6212603;23;20471;-72
2022/04/30 09:10:34;;;;;;;48.87;45.30;;;14.10;99.90;;;;;;6212552;23;20412;-74
2022/04/30 09:13:10;;;;;;;49.57;46.07;;;13.90;99.90;;;;;;6212549;23;20776;-74
2022/04/30 09:15:38;;;;;;;48.83;45.37;;;13.70;99.90;;;;;;6212995;23;20416;-73
2022/04/30 09:18:07;;;;;;;48.50;44.87;;;13.50;99.90;;;;;;6212692;23;20396;-74
2022/04/30 09:20:42;;;;;;;48.60;45.03;;;13.40;99.90;;;;;;6212447;23;20459;-73
2022/04/30 09:23:09;;;;;;;48.00;44.40;;;13.20;99.90;;;;;;6212317;23;20435;-73
2022/04/30 09:25:36;;;;;;;49.57;45.73;;;13.10;99.90;;;;;;6212925;23;20831;-74
2022/04/30 09:28:04;;;;;;;48.30;44.83;;;13.20;99.90;;;;;;6212347;23;20416;-73
2022/04/30 09:30:32;;;;;;;47.77;44.47;;;13.00;99.90;;;;;;6212025;23;20413;-74
2022/04/30 09:33:00;;;;;;;47.33;43.73;;;12.80;99.90;;;;;;6212350;23;20467;-74
2022/04/30 09:38:12;;;;;;;47.23;43.97;;;12.80;99.90;;;;;;6211978;23;20408;-73
2022/04/30 09:40:39;;;;;;;45.07;42.00;;;12.60;99.90;;;;;;6212758;23;20455;-73
2022/04/30 09:43:15;;;;;;;43.83;40.97;;;12.70;99.90;;;;;;6211983;23;20474;-73
2022/04/30 09:45:43;;;;;;;47.10;43.80;;;12.50;99.90;;;;;;6211735;23;20412;-73
2022/04/30 09:56:32;;;;;;;47.20;43.20;;;12.60;99.90;;;;;;6212506;23;20372;-75
2022/04/30 09:58:59;;;;;;;43.03;40.13;;;12.50;99.90;;;;;;6212067;23;20440;-74
2022/04/30 10:01:31;;;;;;;44.13;41.07;;;12.50;99.90;;;;;;6212265;23;20385;-73
2022/04/30 10:03:59;;;;;;;43.47;40.03;;;12.60;99.90;;;;;;6211839;23;20463;-76
2022/04/30 10:06:26;;;;;;;43.43;40.20;;;12.50;99.90;;;;;;6212165;23;20423;-73
2022/04/30 10:08:55;;;;;;;42.90;40.00;;;12.50;99.90;;;;;;6212795;23;20681;-76
2022/04/30 10:11:32;;;;;;;42.70;39.70;;;12.50;99.90;;;;;;6212640;23;20409;-75
2022/04/30 10:14:13;;;;;;;42.40;39.57;;;12.50;99.90;;;;;;6212548;23;20388;-75
2022/04/30 10:16:50;;;;;;;40.10;37.57;;;12.50;99.90;;;;;;6212621;23;20396;-75
2022/04/30 10:19:21;;;;;;;41.20;38.50;;;12.50;99.90;;;;;;6212586;23;20455;-75
2022/04/30 10:22:09;;;;;;;42.93;39.90;;;12.40;99.90;;;;;;6212386;23;20871;-75
2022/04/30 10:24:35;;;;;;;42.83;39.83;;;12.20;99.90;;;;;;6212768;23;20433;-74
2022/04/30 10:27:02;;;;;;;42.77;40.07;;;12.20;99.90;;;;;;6212376;23;20412;-76
2022/04/30 10:29:29;;;;;;;42.90;40.10;;;12.20;99.90;;;;;;6212566;23;20413;-76
2022/04/30 10:31:57;;;;;;;41.47;38.77;;;12.20;99.90;;;;;;6212417;23;20417;-77
2022/04/30 10:34:30;;;;;;;39.37;36.97;;;12.20;99.90;;;;;;6212078;23;20401;-76
2022/04/30 10:37:00;;;;;;;41.30;38.70;;;12.20;99.90;;;;;;6212122;23;20415;-73
2022/04/30 10:39:28;;;;;;;41.33;38.77;;;12.20;99.90;;;;;;6212346;23;20408;-74
2022/04/30 10:41:54;;;;;;;41.23;38.43;;;12.20;99.90;;;;;;6211936;23;20884;-73
2022/04/30 10:44:31;;;;;;;41.90;39.43;;;12.30;99.90;;;;;;6212350;23;20444;-74
2022/04/30 10:47:12;;;;;;;39.10;36.70;;;12.40;99.90;;;;;;6211454;23;20936;-74
2022/04/30 10:49:39;;;;;;;40.30;37.80;;;12.40;99.90;;;;;;6212198;23;20484;-74
2022/04/30 10:52:07;;;;;;;38.40;36.10;;;12.50;99.90;;;;;;6212197;23;20420;-73
2022/04/30 10:54:35;;;;;;;39.73;37.17;;;12.70;99.90;;;;;;6212499;23;20405;-73
2022/04/30 10:57:03;;;;;;;38.37;35.97;;;12.90;99.90;;;;;;6211948;23;20420;-71
2022/04/30 10:59:30;;;;;;;38.37;35.97;;;12.90;99.90;;;;;;6211883;23;20452;-72
2022/04/30 11:01:57;;;;;;;35.90;33.80;;;13.00;99.90;;;;;;6212424;23;20409;-73
2022/04/30 11:04:25;;;;;;;35.80;33.80;;;13.30;99.90;;;;;;6212432;23;20527;-73
2022/04/30 11:06:53;;;;;;;36.77;34.67;;;13.30;99.90;;;;;;6212475;23;20412;-73
2022/04/30 11:09:22;;;;;;;34.30;32.40;;;13.40;99.90;;;;;;6211844;23;20420;-74
2022/04/30 11:11:50;;;;;;;34.80;32.80;;;13.80;99.90;;;;;;6212607;23;20413;-75
2022/04/30 11:14:19;;;;;;;36.53;34.30;;;13.90;99.90;;;;;;6214263;23;20405;-74
2022/04/30 11:16:49;;;;;;;35.17;33.27;;;13.60;99.90;;;;;;6214077;23;20452;-75
2022/04/30 11:19:17;;;;;;;34.50;32.70;;;13.70;99.90;;;;;;6213697;23;20924;-74
2022/04/30 11:21:51;;;;;;;33.53;31.83;;;13.80;99.90;;;;;;6213703;23;20408;-75
2022/04/30 11:24:25;;;;;;;30.90;29.40;;;13.80;99.90;;;;;;6213938;23;20432;-74
2022/04/30 11:26:55;;;;;;;28.20;27.00;;;13.50;99.90;;;;;;6214094;23;20735;-74
2022/04/30 11:29:22;;;;;;;28.77;27.43;;;13.20;99.90;;;;;;6213697;23;20896;-73
2022/04/30 11:31:51;;;;;;;25.57;24.43;;;13.20;99.90;;;;;;6214049;23;20734;-75
2022/04/30 11:34:19;;;;;;;23.27;22.20;;;13.20;99.90;;;;;;6213753;23;20405;-74
2022/04/30 11:36:49;;;;;;;23.57;22.37;;;13.20;99.90;;;;;;6213736;23;20762;-74
2022/04/30 11:39:16;;;;;;;22.03;21.03;;;13.50;99.90;;;;;;6213661;23;20404;-73
2022/04/30 11:41:45;;;;;;;20.57;19.60;;;13.90;99.90;;;;;;6213696;23;20408;-72
2022/04/30 11:44:12;;;;;;;20.10;19.20;;;14.30;99.90;;;;;;6213514;23;20437;-74
2022/04/30 11:46:40;;;;;;;17.87;17.07;;;15.70;99.90;;;;;;6213583;23;20412;-74
2022/04/30 11:49:08;;;;;;;15.57;14.80;;;18.00;99.90;;;;;;6213896;23;20409;-75
2022/04/30 11:51:36;;;;;;;15.23;14.53;;;18.90;99.90;;;;;;6213888;23;20442;-75
2022/04/30 11:54:07;;;;;;;15.77;15.00;;;18.40;99.90;;;;;;6212968;23;20401;-75
2022/04/30 11:56:35;;;;;;;15.80;15.10;;;17.70;99.90;;;;;;6213842;23;20403;-75
2022/04/30 11:59:01;;;;;;;16.40;15.50;;;17.80;99.90;;;;;;6213145;23;20775;-73
2022/04/30 12:01:32;;;;;;;15.90;15.10;;;17.30;99.90;;;;;;6213486;23;20412;-73
2022/04/30 12:04:00;;;;;;;15.37;14.67;;;17.90;99.90;;;;;;6212924;23;20429;-73
2022/04/30 12:06:28;;;;;;;15.43;14.73;;;17.80;99.90;;;;;;6213330;23;20401;-72
2022/04/30 12:08:55;;;;;;;15.53;14.83;;;17.50;99.90;;;;;;6213382;23;20409;-72
2022/04/30 12:11:23;;;;;;;15.30;14.60;;;17.10;99.90;;;;;;6213461;23;20470;-71
2022/04/30 12:13:58;;;;;;;15.77;15.07;;;16.50;99.90;;;;;;6213396;23;20467;-72
2022/04/30 12:16:24;;;;;;;16.97;16.13;;;16.30;99.90;;;;;;6213062;23;20407;-72
2022/04/30 12:24:43;;;;;;;15.37;14.67;;;17.20;99.90;;;;;;6213150;23;20747;-71
2022/04/30 12:27:19;;;;;;;16.00;15.20;;;17.00;99.90;;;;;;6213385;23;20431;-70
2022/04/30 12:29:47;;;;;;;14.77;14.07;;;16.30;99.90;;;;;;6212947;23;20399;-70
2022/04/30 12:32:17;;;;;;;15.97;14.83;;;15.90;99.90;;;;;;6213081;23;20419;-72
2022/04/30 12:34:45;;;;;;;14.83;14.13;;;15.80;99.90;;;;;;6213049;23;20404;-72
2022/04/30 12:37:11;;;;;;;16.00;15.10;;;15.50;99.90;;;;;;6212812;23;20816;-72
2022/04/30 12:39:40;;;;;;;14.73;14.03;;;15.60;99.90;;;;;;6213202;23;20408;-71
2022/04/30 12:42:09;;;;;;;14.23;13.43;;;15.60;99.90;;;;;;6213236;23;20431;-71
2022/04/30 12:44:37;;;;;;;14.23;13.53;;;15.50;99.90;;;;;;6212932;23;20520;-72
2022/04/30 12:47:05;;;;;;;14.07;13.47;;;16.00;99.90;;;;;;6212667;23;20899;-72
2022/04/30 12:49:32;;;;;;;14.57;13.87;;;16.80;99.90;;;;;;6212993;23;20790;-72
2022/04/30 12:51:58;;;;;;;13.90;13.30;;;16.70;99.90;;;;;;6212712;23;20662;-71
2022/04/30 12:54:25;;;;;;;14.47;13.77;;;16.40;99.90;;;;;;6212614;23;20893;-72
2022/04/30 12:56:52;;;;;;;13.33;12.60;;;15.80;99.90;;;;;;6212671;23;20424;-72
2022/04/30 12:59:18;;;;;;;14.00;13.30;;;15.20;99.90;;;;;;6212561;23;20439;-71
2022/04/30 13:01:47;;;;;;;14.90;14.10;;;14.90;99.90;;;;;;6212872;23;20413;-70
2022/04/30 13:04:13;;;;;;;14.47;13.50;;;14.40;99.90;;;;;;6212822;23;20440;-71
2022/04/30 13:06:40;;;;;;;17.93;16.93;;;14.30;99.90;;;;;;6212520;23;20411;-70
2022/04/30 13:14:36;;;;;;;17.07;16.07;;;13.80;99.90;;;;;;6213018;23;20409;-71
2022/04/30 13:17:04;;;;;;;18.23;17.23;;;13.90;99.90;;;;;;6212732;23;20412;-71
2022/04/30 13:19:32;;;;;;;16.27;15.40;;;13.80;99.90;;;;;;6212885;23;20652;-71
2022/04/30 13:21:59;;;;;;;17.27;16.27;;;13.90;99.90;;;;;;6212245;23;21133;-70
2022/04/30 13:24:26;;;;;;;17.70;16.50;;;13.90;99.90;;;;;;6212521;23;20812;-71